createdAt,value
2022-09-10T00:05:45.006Z,99808.72
2022-09-10T00:11:46.974Z,99829.28
2022-09-10T00:17:48.716Z,99851.38
2022-09-10T00:23:50.705Z,99829.94
2022-09-10T00:29:54.346Z,99867.75
2022-09-10T00:35:57.987Z,99874.19
2022-09-10T00:41:59.714Z,99849.25
2022-09-10T00:48:05.787Z,99845.69
2022-09-10T00:54:08.064Z,99833.69
2022-09-10T01:00:13.721Z,99838.34
2022-09-10T01:06:16.029Z,99839.97
2022-09-10T01:12:33.125Z,99826.88
2022-09-10T01:19:25.425Z,99795.50
2022-09-10T01:25:54.384Z,99813.44
2022-09-10T01:32:07.017Z,99817.66
2022-09-10T01:38:15.549Z,99812.69
2022-09-10T01:44:50.595Z,99810.59
2022-09-10T01:51:15.650Z,99747.44
2022-09-10T01:57:20.237Z,99803.28
2022-09-10T02:03:26.389Z,99792.31
2022-09-10T02:09:28.280Z,99724.50
2022-09-10T02:15:31.220Z,99727.69
2022-09-10T02:21:34.185Z,99786.97
2022-09-10T02:27:36.460Z,99709.72
2022-09-10T02:33:38.421Z,99784.94
2022-09-10T02:39:40.309Z,99778.97
2022-09-10T02:45:42.271Z,99756.09
2022-09-10T02:51:44.785Z,99770.00
2022-09-10T02:57:46.780Z,99749.16
2022-09-10T03:03:55.141Z,99771.28
2022-09-10T03:09:56.993Z,99773.19
2022-09-10T03:15:59.236Z,99773.00
2022-09-10T03:22:01.011Z,99753.91
2022-09-10T03:28:02.972Z,99685.19
2022-09-10T03:34:04.969Z,99709.19
2022-09-10T03:40:08.010Z,99723.63
2022-09-10T03:46:11.241Z,99753.97
2022-09-10T03:52:13.268Z,99683.25
2022-09-10T03:58:15.974Z,99716.66
2022-09-10T04:04:18.683Z,99734.00
2022-09-10T04:10:21.830Z,99615.88
2022-09-10T04:16:23.703Z,99641.28
2022-09-10T04:22:25.984Z,99735.53
2022-09-10T04:35:16.268Z,99602.38
2022-09-10T04:41:19.694Z,99739.31
2022-09-10T04:47:31.785Z,99743.53
2022-09-10T04:53:36.034Z,99746.81
2022-09-10T05:06:28.228Z,99714.44
2022-09-10T05:12:37.337Z,99631.19
2022-09-10T05:18:43.661Z,99627.47
2022-09-10T05:24:46.155Z,99576.16
2022-09-10T05:31:13.093Z,99716.94
2022-09-10T05:37:16.576Z,99721.91
2022-09-10T05:44:00.676Z,99718.06
2022-09-10T05:50:12.478Z,99712.34
2022-09-10T05:56:14.707Z,99691.34
2022-09-10T06:09:08.847Z,99685.25
2022-09-10T06:22:22.181Z,99623.84
2022-09-10T06:28:52.327Z,99683.38
2022-09-10T06:35:04.618Z,99676.84
2022-09-10T06:41:12.219Z,99618.75
2022-09-10T06:59:50.166Z,99591.97
2022-09-10T07:05:55.963Z,99508.69
2022-09-10T07:24:42.859Z,99523.19
2022-09-10T07:30:46.863Z,99544.19
2022-09-10T07:36:51.503Z,99657.19
2022-09-10T07:43:14.970Z,99579.38
2022-09-10T07:49:17.614Z,99511.06
2022-09-10T07:55:19.518Z,99577.66
2022-09-10T08:07:39.249Z,99568.59
2022-09-10T08:20:26.557Z,99612.09
2022-09-10T08:26:29.645Z,99591.00
2022-09-10T08:32:35.119Z,99601.47
2022-09-10T08:38:43.657Z,99460.47
2022-09-10T08:45:24.755Z,99518.84
2022-09-10T08:51:31.678Z,99422.69
2022-09-10T08:57:45.402Z,99423.38
2022-09-10T09:03:48.480Z,99537.59
2022-09-10T09:09:56.075Z,99497.56
2022-09-10T09:16:26.867Z,99512.50
2022-09-10T09:22:53.514Z,99501.78
2022-09-10T09:29:17.244Z,99400.50
2022-09-10T09:35:32.587Z,99378.91
2022-09-10T09:42:07.128Z,99379.56
2022-09-10T09:48:13.784Z,99442.72
2022-09-10T10:00:44.489Z,99433.31
2022-09-10T10:06:54.068Z,99440.88
2022-09-10T10:12:56.149Z,99418.00
2022-09-10T10:18:59.162Z,99398.66
2022-09-10T10:25:02.567Z,99406.13
2022-09-10T10:31:11.896Z,99360.41
2022-09-10T10:37:35.416Z,99396.16
2022-09-10T10:43:39.963Z,99382.06
2022-09-10T10:50:22.286Z,99384.03
2022-09-10T10:57:09.580Z,99351.13
2022-09-10T11:03:31.674Z,99285.63
2022-09-10T11:09:41.139Z,99281.22
2022-09-10T11:16:26.779Z,99321.56
2022-09-10T11:22:35.295Z,99324.06
2022-09-10T11:28:57.559Z,99340.00
2022-09-10T11:35:36.647Z,99329.75
2022-09-10T11:41:42.863Z,99325.63
2022-09-10T11:47:51.330Z,99284.97
2022-09-10T11:53:55.608Z,99274.28
2022-09-10T12:00:25.464Z,99301.31
2022-09-10T12:06:46.845Z,99244.16
2022-09-10T12:12:50.339Z,99238.41
2022-09-10T12:18:55.170Z,99218.25
2022-09-10T12:25:03.552Z,99280.25
2022-09-10T12:31:15.112Z,99192.94
2022-09-10T12:37:23.855Z,99189.56
2022-09-10T12:43:41.037Z,99243.63
2022-09-10T12:49:48.918Z,99226.88
2022-09-10T12:56:18.659Z,99227.91
2022-09-10T13:02:35.375Z,99204.28
2022-09-10T13:08:47.837Z,99183.06
2022-09-10T13:14:54.467Z,99138.81
2022-09-10T13:20:56.910Z,99197.22
2022-09-10T13:27:17.389Z,99184.31
2022-09-10T13:33:23.182Z,99177.97
2022-09-10T13:39:46.301Z,99170.78
2022-09-10T13:46:12.877Z,99160.75
2022-09-10T13:52:18.097Z,99151.31
2022-09-10T13:58:28.958Z,99087.44
2022-09-10T14:04:39.930Z,99135.03
2022-09-10T14:11:14.366Z,99110.59
2022-09-10T14:17:43.169Z,99088.03
2022-09-10T14:23:48.947Z,99115.50
2022-09-10T14:29:59.862Z,99128.78
2022-09-10T14:36:22.484Z,99100.34
2022-09-10T14:42:29.929Z,99093.47
2022-09-10T14:48:41.304Z,99092.16
2022-09-10T14:54:43.081Z,99080.72
2022-09-10T15:00:45.876Z,99064.75
2022-09-10T15:06:47.743Z,99099.25
2022-09-10T15:12:52.280Z,99121.09
2022-09-10T15:18:54.026Z,99041.66
2022-09-10T15:25:09.533Z,99135.47
2022-09-10T15:31:11.666Z,99099.31
2022-09-10T15:37:13.646Z,99124.97
2022-09-10T15:43:19.278Z,99110.59
2022-09-10T15:49:21.083Z,99137.03
2022-09-10T15:55:24.542Z,99148.91
2022-09-10T16:01:30.527Z,99170.38
2022-09-10T16:07:32.347Z,99172.28
2022-09-10T16:13:34.131Z,99175.03
2022-09-10T16:19:37.444Z,99106.16
2022-09-10T16:25:39.657Z,99127.22
2022-09-10T16:31:42.094Z,99169.69
2022-09-10T16:37:44.674Z,99141.22
2022-09-10T16:56:28.478Z,99040.34
2022-09-10T17:02:31.069Z,99173.28
2022-09-10T17:08:34.856Z,99141.78
2022-09-10T17:14:36.630Z,99132.28
2022-09-10T17:20:39.937Z,99183.84
2022-09-10T17:27:25.325Z,99131.94
2022-09-10T17:33:29.252Z,99166.06
2022-09-10T17:39:31.609Z,99210.66
2022-09-10T17:45:39.494Z,99224.50
2022-09-10T17:51:42.050Z,99202.44
2022-09-10T17:57:43.930Z,99224.94
2022-09-10T18:03:46.436Z,99236.75
2022-09-10T18:09:48.340Z,99321.09
2022-09-10T18:15:50.376Z,99210.75
2022-09-10T18:21:52.458Z,99376.50
2022-09-10T18:27:54.770Z,99318.22
2022-09-10T18:34:00.423Z,99406.22
2022-09-10T18:40:07.349Z,99408.13
2022-09-10T18:46:09.407Z,99404.47
2022-09-10T18:52:13.943Z,99407.00
2022-09-10T18:58:16.068Z,99428.69
2022-09-10T19:04:21.799Z,99361.53
2022-09-10T19:10:30.269Z,99317.34
2022-09-10T19:16:36.368Z,99434.63
2022-09-10T19:28:58.533Z,99360.56
2022-09-10T19:35:01.577Z,99335.97
2022-09-10T19:41:14.897Z,99475.59
2022-09-10T19:47:16.805Z,99501.28
2022-09-10T19:53:18.825Z,99496.88
2022-09-10T19:59:23.769Z,99389.16
2022-09-10T20:05:27.808Z,99367.47
2022-09-10T20:11:34.387Z,99505.66
2022-09-10T20:17:36.164Z,99497.50
2022-09-10T20:23:40.097Z,99471.88
2022-09-10T20:29:43.428Z,99500.34
2022-09-10T20:35:54.254Z,99483.66
2022-09-10T20:41:56.275Z,99437.09
2022-09-10T20:48:00.553Z,99497.97
2022-09-10T20:54:03.689Z,99500.19
2022-09-10T21:00:07.642Z,99521.50
2022-09-10T21:06:11.424Z,99532.94
2022-09-10T21:12:13.462Z,99481.66
2022-09-10T21:18:15.300Z,99552.31
2022-09-10T21:24:19.416Z,99508.28
2022-09-10T21:30:21.828Z,99540.03
2022-09-10T21:36:24.311Z,99534.28
2022-09-10T21:42:26.533Z,99385.06
2022-09-10T21:48:29.862Z,99490.88
2022-09-10T21:54:31.857Z,99548.16
2022-09-10T22:00:33.799Z,99552.16
2022-09-10T22:06:36.414Z,99480.53
2022-09-10T22:12:38.568Z,99471.75
2022-09-10T22:18:41.788Z,99489.22
2022-09-10T22:24:43.665Z,99493.69
2022-09-10T22:30:45.728Z,99505.41
2022-09-10T22:36:49.623Z,99427.03
2022-09-10T22:42:52.193Z,99423.91
2022-09-10T22:48:54.799Z,99519.66
2022-09-10T22:54:56.799Z,99427.78
2022-09-10T23:01:13.682Z,99576.88
2022-09-10T23:07:18.096Z,99572.22
2022-09-10T23:19:37.027Z,99455.47
2022-09-10T23:25:45.961Z,99569.59
2022-09-10T23:31:59.135Z,99542.19
